Time;durP1;ratioP1;P1;durP2;ratioP2;P2;SDS_P1;SDS_P2;PMS_P1;PMS_P2;Temp;Humidity;BMP_temperature;BMP_pressure;BME280_temperature;BME280_humidity;BME280_pressure;Samples;Min_cycle;Max_cycle;Signal;HPM_P1;HPM_P2
2020/12/05 00:02:15;;;;;;;337.42;303.92;;;;;;;;;;5062822;28;20126;-72
2020/12/05 00:04:41;;;;;;;339.77;306.38;;;;;;;;;;5067555;28;20109;-73
2020/12/05 00:07:07;;;;;;;334.52;301.20;;;;;;;;;;5060010;28;20032;-72
2020/12/05 00:09:33;;;;;;;353.90;319.77;;;;;;;;;;5059287;28;20040;-73
2020/12/05 00:12:02;;;;;;;312.38;279.63;;;;;;;;;;5065800;28;20039;-72
2020/12/05 00:14:28;;;;;;;327.27;293.95;;;;;;;;;;5062266;28;20029;-73
2020/12/05 00:16:54;;;;;;;1931.53;999.90;;;;;;;;;;5061744;28;20423;-72
2020/12/05 00:19:20;;;;;;;555.20;497.15;;;;;;;;;;5059449;28;20029;-73
2020/12/05 00:21:46;;;;;;;338.67;305.15;;;;;;;;;;5069177;28;20094;-73
2020/12/05 00:24:12;;;;;;;321.92;289.35;;;;;;;;;;5054081;28;20056;-73
2020/12/05 00:26:38;;;;;;;329.08;296.08;;;;;;;;;;5069531;28;20052;-72
2020/12/05 00:29:04;;;;;;;361.48;327.42;;;;;;;;;;5067292;28;20071;-72
2020/12/05 00:31:30;;;;;;;355.73;321.95;;;;;;;;;;5068021;28;20444;-72
2020/12/05 00:33:56;;;;;;;357.10;322.88;;;;;;;;;;5062243;28;20115;-71
2020/12/05 00:36:22;;;;;;;378.77;343.88;;;;;;;;;;5071383;28;20028;-72
2020/12/05 00:38:48;;;;;;;346.17;312.40;;;;;;;;;;5069244;28;20070;-72
2020/12/05 00:41:18;;;;;;;349.27;315.77;;;;;;;;;;5066432;28;20557;-73
2020/12/05 00:43:45;;;;;;;369.08;334.65;;;;;;;;;;5056643;28;20029;-73
2020/12/05 00:46:11;;;;;;;355.73;321.23;;;;;;;;;;5060940;28;20040;-72
2020/12/05 00:48:37;;;;;;;336.50;303.10;;;;;;;;;;5065556;28;20025;-72
2020/12/05 00:51:03;;;;;;;359.13;324.80;;;;;;;;;;5070137;28;20024;-73
2020/12/05 00:53:29;;;;;;;332.60;299.58;;;;;;;;;;5064721;28;20481;-72
2020/12/05 00:55:55;;;;;;;306.63;274.50;;;;;;;;;;5066878;28;20036;-73
2020/12/05 00:58:21;;;;;;;313.02;280.50;;;;;;;;;;5062358;28;20037;-72
2020/12/05 01:00:47;;;;;;;344.35;310.60;;;;;;;;;;5069808;28;20032;-72
2020/12/05 01:03:13;;;;;;;331.35;298.25;;;;;;;;;;5070814;28;20393;-72
2020/12/05 01:05:39;;;;;;;329.90;296.63;;;;;;;;;;5067719;28;20461;-73
2020/12/05 01:08:06;;;;;;;351.50;317.35;;;;;;;;;;5055784;28;20427;-73
2020/12/05 01:10:33;;;;;;;334.13;300.77;;;;;;;;;;5070868;28;20036;-71
2020/12/05 01:13:02;;;;;;;369.53;334.73;;;;;;;;;;5065428;28;20043;-72
2020/12/05 01:15:29;;;;;;;348.33;314.45;;;;;;;;;;5071289;28;20036;-72
2020/12/05 01:17:55;;;;;;;357.25;323.23;;;;;;;;;;5071405;28;20090;-74
2020/12/05 01:20:21;;;;;;;348.50;314.65;;;;;;;;;;5067965;28;20397;-73
2020/12/05 01:22:47;;;;;;;323.42;290.40;;;;;;;;;;5068043;28;20079;-72
2020/12/05 01:25:14;;;;;;;334.70;301.35;;;;;;;;;;5070210;28;20038;-75
2020/12/05 01:27:40;;;;;;;372.73;337.88;;;;;;;;;;5073324;28;20024;-73
2020/12/05 01:30:06;;;;;;;364.27;329.73;;;;;;;;;;5070694;28;20021;-73
2020/12/05 01:32:32;;;;;;;318.92;286.13;;;;;;;;;;5071954;28;20035;-72
2020/12/05 01:34:58;;;;;;;332.35;298.83;;;;;;;;;;5073783;28;20485;-73
2020/12/05 01:37:24;;;;;;;331.00;297.92;;;;;;;;;;5062088;28;20033;-73
2020/12/05 01:39:50;;;;;;;344.83;311.27;;;;;;;;;;5060207;28;20094;-73
2020/12/05 01:42:17;;;;;;;345.95;312.10;;;;;;;;;;5073178;28;20024;-73
2020/12/05 01:44:43;;;;;;;330.27;297.23;;;;;;;;;;5059651;28;20361;-73
2020/12/05 01:47:10;;;;;;;1313.40;999.90;;;;;;;;;;5065845;28;20099;-73
2020/12/05 01:49:36;;;;;;;345.08;311.17;;;;;;;;;;5069485;28;20115;-72
2020/12/05 01:52:02;;;;;;;372.85;337.58;;;;;;;;;;5059899;28;20083;-73
2020/12/05 01:54:29;;;;;;;347.35;313.10;;;;;;;;;;5061521;28;20032;-73
2020/12/05 01:57:00;;;;;;;352.83;318.85;;;;;;;;;;5072257;28;20473;-73
2020/12/05 01:59:26;;;;;;;329.77;296.58;;;;;;;;;;5064064;28;20028;-73
2020/12/05 02:01:56;;;;;;;314.35;282.02;;;;;;;;;;5072414;28;20150;-73
2020/12/05 02:04:22;;;;;;;366.55;332.02;;;;;;;;;;5068621;28;20119;-73
2020/12/05 02:07:00;;;;;;;369.75;335.23;;;;;;;;;;5069475;28;20063;-73
2020/12/05 02:09:32;;;;;;;849.15;761.50;;;;;;;;;;5062875;28;20420;-73
2020/12/05 02:12:01;;;;;;;355.63;321.40;;;;;;;;;;5065791;28;20055;-73
2020/12/05 02:14:28;;;;;;;325.73;292.38;;;;;;;;;;5069685;28;20035;-72
2020/12/05 02:16:54;;;;;;;;;;;;;;;;;;5064623;28;20033;-73
2020/12/05 02:19:22;;;;;;;363.95;329.65;;;;;;;;;;5055114;28;19916;-73
2020/12/05 02:21:50;;;;;;;361.25;327.10;;;;;;;;;;5061464;28;20029;-73
2020/12/05 02:24:17;;;;;;;1957.90;999.90;;;;;;;;;;5060211;28;20171;-73
2020/12/05 02:26:44;;;;;;;1477.47;999.90;;;;;;;;;;5073036;28;20028;-73
2020/12/05 02:29:10;;;;;;;336.75;303.38;;;;;;;;;;5065221;28;20029;-73
2020/12/05 02:31:37;;;;;;;324.90;292.05;;;;;;;;;;5057856;28;20576;-73
2020/12/05 02:34:04;;;;;;;379.10;343.85;;;;;;;;;;5060465;28;20029;-72
2020/12/05 02:36:34;;;;;;;344.83;311.17;;;;;;;;;;5072884;28;20029;-73
2020/12/05 02:39:10;;;;;;;345.55;311.90;;;;;;;;;;5065381;28;20511;-73
2020/12/05 02:41:39;;;;;;;1937.25;999.90;;;;;;;;;;5073705;28;20493;-73
2020/12/05 02:44:05;;;;;;;1482.10;999.90;;;;;;;;;;5064137;28;20051;-73
2020/12/05 02:46:31;;;;;;;345.70;311.92;;;;;;;;;;5055652;28;20021;-73
2020/12/05 02:48:57;;;;;;;351.65;317.88;;;;;;;;;;5061267;28;20074;-73
2020/12/05 02:51:23;;;;;;;362.98;328.38;;;;;;;;;;5067065;28;20041;-72
2020/12/05 02:53:50;;;;;;;350.00;316.08;;;;;;;;;;5063966;28;20036;-72
2020/12/05 02:56:19;;;;;;;332.08;298.98;;;;;;;;;;5073839;28;20024;-73
2020/12/05 02:58:46;;;;;;;331.52;298.52;;;;;;;;;;5068683;28;20107;-73
2020/12/05 03:01:12;;;;;;;306.45;274.30;;;;;;;;;;5064813;28;20025;-72
2020/12/05 03:03:39;;;;;;;369.20;334.70;;;;;;;;;;5072492;28;20508;-73
2020/12/05 03:06:05;;;;;;;378.63;343.83;;;;;;;;;;5073517;28;20815;-73
2020/12/05 03:08:31;;;;;;;338.95;305.48;;;;;;;;;;5069123;28;20119;-72
2020/12/05 03:10:57;;;;;;;350.35;316.48;;;;;;;;;;5059060;28;20469;-73
2020/12/05 03:13:23;;;;;;;1480.32;999.90;;;;;;;;;;5055696;28;20052;-73
2020/12/05 03:15:49;;;;;;;380.38;345.40;;;;;;;;;;5065094;28;20025;-72
2020/12/05 03:18:15;;;;;;;359.55;325.40;;;;;;;;;;5052574;28;20063;-72
2020/12/05 03:20:41;;;;;;;354.27;320.42;;;;;;;;;;5063611;28;20055;-72
2020/12/05 03:23:07;;;;;;;346.83;312.95;;;;;;;;;;5052168;28;20029;-72
2020/12/05 03:25:33;;;;;;;336.38;302.90;;;;;;;;;;5054860;28;20078;-72
2020/12/05 03:27:59;;;;;;;358.48;324.30;;;;;;;;;;5065516;28;20033;-73
2020/12/05 03:30:25;;;;;;;361.30;327.10;;;;;;;;;;5058648;28;20033;-73
2020/12/05 03:32:52;;;;;;;342.50;309.05;;;;;;;;;;5052769;28;20037;-72
2020/12/05 03:35:18;;;;;;;1941.10;999.90;;;;;;;;;;5065979;28;20129;-73
2020/12/05 03:37:44;;;;;;;721.05;646.88;;;;;;;;;;5060387;28;20151;-73
2020/12/05 03:40:10;;;;;;;372.35;337.45;;;;;;;;;;5060035;28;20044;-73
2020/12/05 03:42:38;;;;;;;375.00;339.98;;;;;;;;;;5054452;28;20029;-73
2020/12/05 03:45:04;;;;;;;344.38;310.52;;;;;;;;;;5071944;28;20154;-71
2020/12/05 03:47:30;;;;;;;363.00;328.45;;;;;;;;;;5065365;28;20452;-73
2020/12/05 03:49:56;;;;;;;315.48;282.95;;;;;;;;;;5063036;28;20104;-73
2020/12/05 03:52:22;;;;;;;346.92;313.05;;;;;;;;;;5066033;28;20040;-73
2020/12/05 03:54:48;;;;;;;360.15;326.00;;;;;;;;;;5062924;28;20032;-73
2020/12/05 03:57:14;;;;;;;348.95;314.92;;;;;;;;;;5072437;28;20035;-73
2020/12/05 03:59:40;;;;;;;338.85;304.92;;;;;;;;;;5064636;28;20024;-73
2020/12/05 04:02:06;;;;;;;339.08;305.77;;;;;;;;;;5068164;28;20389;-72
2020/12/05 04:04:32;;;;;;;351.75;317.92;;;;;;;;;;5071933;28;20051;-73
2020/12/05 04:06:58;;;;;;;336.98;303.65;;;;;;;;;;5067530;28;20025;-73
2020/12/05 04:09:24;;;;;;;346.63;312.83;;;;;;;;;;5067721;28;20032;-74
2020/12/05 04:11:50;;;;;;;347.58;313.75;;;;;;;;;;5063683;28;20060;-72
2020/12/05 04:14:16;;;;;;;342.38;308.92;;;;;;;;;;5065680;28;20070;-73
2020/12/05 04:16:42;;;;;;;374.50;339.73;;;;;;;;;;5071303;28;20417;-73
2020/12/05 04:19:08;;;;;;;366.80;332.38;;;;;;;;;;5058071;28;20031;-73
2020/12/05 04:21:34;;;;;;;355.63;321.63;;;;;;;;;;5067045;28;20033;-73
2020/12/05 04:24:00;;;;;;;307.48;275.02;;;;;;;;;;5067457;28;20033;-72
2020/12/05 04:26:26;;;;;;;1951.15;999.90;;;;;;;;;;5070300;28;20463;-72
2020/12/05 04:28:53;;;;;;;349.42;315.13;;;;;;;;;;5068647;28;20033;-73
2020/12/05 04:31:19;;;;;;;349.25;315.27;;;;;;;;;;5068373;28;20028;-73
2020/12/05 04:33:45;;;;;;;380.35;345.13;;;;;;;;;;5070079;28;20488;-73
2020/12/05 04:36:12;;;;;;;385.58;350.25;;;;;;;;;;5071588;28;20521;-73
2020/12/05 04:38:38;;;;;;;374.20;339.50;;;;;;;;;;5070233;28;20476;-73
2020/12/05 04:41:04;;;;;;;354.30;320.42;;;;;;;;;;5075052;28;20048;-74
2020/12/05 04:43:30;;;;;;;309.60;277.27;;;;;;;;;;5064898;28;20036;-73
2020/12/05 04:45:57;;;;;;;323.17;290.50;;;;;;;;;;5073657;28;20021;-73
2020/12/05 04:48:23;;;;;;;317.20;284.58;;;;;;;;;;5071151;28;20040;-73
2020/12/05 04:50:49;;;;;;;369.52;335.15;;;;;;;;;;5073108;28;20516;-73
2020/12/05 04:53:17;;;;;;;358.20;323.83;;;;;;;;;;5070394;28;20040;-73
2020/12/05 04:55:43;;;;;;;343.33;309.80;;;;;;;;;;5074158;28;20025;-73
2020/12/05 04:58:30;;;;;;;363.67;329.55;;;;;;;;;;5067781;28;20039;-73
2020/12/05 05:00:57;;;;;;;352.17;318.48;;;;;;;;;;5071013;28;20025;-73
2020/12/05 05:03:24;;;;;;;329.23;296.40;;;;;;;;;;5068369;28;20043;-73
2020/12/05 05:05:52;;;;;;;330.92;298.05;;;;;;;;;;5063598;28;20048;-73
2020/12/05 05:08:18;;;;;;;335.15;302.27;;;;;;;;;;5059403;28;20037;-73
2020/12/05 05:10:44;;;;;;;359.42;325.42;;;;;;;;;;5065338;28;20035;-74
2020/12/05 05:13:20;;;;;;;334.50;301.67;;;;;;;;;;5061818;28;20021;-73
2020/12/05 05:15:46;;;;;;;337.38;304.17;;;;;;;;;;5074659;28;20027;-73
2020/12/05 05:18:12;;;;;;;366.02;331.45;;;;;;;;;;5067011;28;20039;-71
2020/12/05 05:20:39;;;;;;;352.60;318.33;;;;;;;;;;5065948;28;20028;-72
2020/12/05 05:23:09;;;;;;;324.73;292.17;;;;;;;;;;5066645;28;20390;-72
2020/12/05 05:25:48;;;;;;;340.15;306.88;;;;;;;;;;5075134;28;20032;-72
2020/12/05 05:28:18;;;;;;;312.58;280.33;;;;;;;;;;5067070;28;20473;-73
2020/12/05 05:30:54;;;;;;;350.60;316.92;;;;;;;;;;5061533;28;20104;-72
2020/12/05 05:33:20;;;;;;;331.40;298.65;;;;;;;;;;5063429;28;20116;-73
2020/12/05 05:35:46;;;;;;;344.38;311.17;;;;;;;;;;5069196;28;20478;-73
2020/12/05 05:38:22;;;;;;;299.30;267.50;;;;;;;;;;5071885;28;20031;-72
2020/12/05 05:40:49;;;;;;;335.38;302.38;;;;;;;;;;5071075;28;20050;-73
2020/12/05 05:43:18;;;;;;;310.70;278.77;;;;;;;;;;5067524;28;20085;-73
2020/12/05 05:45:44;;;;;;;339.52;306.33;;;;;;;;;;5073304;28;20354;-73
2020/12/05 05:48:11;;;;;;;353.58;319.70;;;;;;;;;;5059906;28;20200;-72
2020/12/05 05:50:37;;;;;;;313.70;281.50;;;;;;;;;;5067801;28;20055;-72
2020/12/05 05:53:04;;;;;;;357.02;323.00;;;;;;;;;;5070715;28;20028;-73
2020/12/05 05:55:46;;;;;;;363.83;329.85;;;;;;;;;;5066214;28;20029;-73
2020/12/05 05:58:12;;;;;;;309.40;277.42;;;;;;;;;;5071989;28;20085;-73
2020/12/05 06:00:40;;;;;;;331.00;298.15;;;;;;;;;;5075104;28;20028;-73
2020/12/05 06:03:17;;;;;;;350.55;317.17;;;;;;;;;;5069320;28;20028;-73
2020/12/05 06:05:47;;;;;;;316.98;284.80;;;;;;;;;;5072445;28;20504;-73
2020/12/05 06:08:15;;;;;;;310.75;278.52;;;;;;;;;;5067351;28;20025;-72
2020/12/05 06:10:42;;;;;;;315.58;283.27;;;;;;;;;;5067287;28;20036;-72
2020/12/05 06:13:09;;;;;;;343.42;310.20;;;;;;;;;;5067791;28;20389;-73
2020/12/05 06:15:35;;;;;;;324.30;291.58;;;;;;;;;;5071286;28;20036;-72
2020/12/05 06:18:01;;;;;;;332.55;299.63;;;;;;;;;;5064027;28;20473;-72
2020/12/05 06:20:28;;;;;;;1955.95;999.90;;;;;;;;;;5058451;28;20162;-72
2020/12/05 06:23:00;;;;;;;353.10;318.70;;;;;;;;;;5066143;28;20045;-73
2020/12/05 06:25:28;;;;;;;324.40;291.65;;;;;;;;;;5072028;28;20028;-72
2020/12/05 06:28:01;;;;;;;818.83;733.40;;;;;;;;;;5067313;28;20531;-72
2020/12/05 06:30:27;;;;;;;329.35;296.48;;;;;;;;;;5068057;28;20025;-73
2020/12/05 06:32:56;;;;;;;340.65;307.25;;;;;;;;;;5055125;28;20113;-73
2020/12/05 06:35:22;;;;;;;314.30;281.65;;;;;;;;;;5055928;28;20389;-71
2020/12/05 06:37:52;;;;;;;359.10;325.08;;;;;;;;;;5060539;28;20024;-75
2020/12/05 06:40:18;;;;;;;340.65;307.25;;;;;;;;;;5067399;28;20111;-73
2020/12/05 06:42:45;;;;;;;1960.88;999.90;;;;;;;;;;5070266;28;20024;-73
2020/12/05 06:45:26;;;;;;;338.15;304.45;;;;;;;;;;5069621;28;20036;-73
2020/12/05 06:47:52;;;;;;;305.67;273.48;;;;;;;;;;5063206;28;20056;-73
2020/12/05 06:50:38;;;;;;;331.83;298.67;;;;;;;;;;5069039;28;20040;-72
2020/12/05 06:53:20;;;;;;;341.65;308.30;;;;;;;;;;5068171;28;20068;-73
2020/12/05 06:55:46;;;;;;;1953.03;999.90;;;;;;;;;;5053981;28;20024;-73
2020/12/05 06:58:12;;;;;;;354.52;320.27;;;;;;;;;;5065481;28;20037;-73
2020/12/05 07:00:39;;;;;;;330.15;297.23;;;;;;;;;;5068979;28;20090;-73
2020/12/05 07:03:05;;;;;;;324.67;292.20;;;;;;;;;;5061976;28;20427;-73
2020/12/05 07:05:31;;;;;;;335.42;302.25;;;;;;;;;;5067107;28;20413;-73
2020/12/05 07:07:58;;;;;;;321.63;289.10;;;;;;;;;;5069097;28;20067;-73
2020/12/05 07:10:43;;;;;;;327.67;295.03;;;;;;;;;;5071777;28;20107;-74
2020/12/05 07:13:28;;;;;;;332.40;299.52;;;;;;;;;;5078852;28;20753;-73
2020/12/05 07:16:10;;;;;;;319.48;287.00;;;;;;;;;;5068267;28;20059;-72
2020/12/05 07:18:56;;;;;;;313.20;281.42;;;;;;;;;;5061370;28;20025;-75
2020/12/05 07:21:22;;;;;;;311.08;279.08;;;;;;;;;;5058933;28;20029;-75
2020/12/05 07:23:49;;;;;;;311.03;279.10;;;;;;;;;;5061491;28;20046;-74
2020/12/05 07:26:15;;;;;;;310.45;278.27;;;;;;;;;;5068043;28;20039;-74
2020/12/05 07:28:45;;;;;;;1481.63;999.90;;;;;;;;;;5062174;28;20024;-73
2020/12/05 07:31:11;;;;;;;345.38;312.02;;;;;;;;;;5065919;28;20028;-73
2020/12/05 07:33:38;;;;;;;300.52;268.83;;;;;;;;;;5069842;28;20907;-74
2020/12/05 07:36:05;;;;;;;275.77;243.25;;;;;;;;;;5071088;28;20483;-74
2020/12/05 07:38:33;;;;;;;297.43;265.70;;;;;;;;;;5065360;28;20037;-71
2020/12/05 07:41:00;;;;;;;333.00;300.20;;;;;;;;;;5070449;28;20086;-74
2020/12/05 07:43:26;;;;;;;323.10;290.63;;;;;;;;;;5066064;28;20035;-75
2020/12/05 07:45:53;;;;;;;353.98;320.17;;;;;;;;;;5072113;28;20264;-72
2020/12/05 07:48:20;;;;;;;299.13;267.25;;;;;;;;;;5053827;28;20033;-74
2020/12/05 07:50:46;;;;;;;;;;;;;;;;;;5056866;28;20178;-75
2020/12/05 07:53:42;;;;;;;306.10;274.23;;;;;;;;;;5064975;28;20439;-74
2020/12/05 07:56:12;;;;;;;290.55;259.35;;;;;;;;;;5065880;28;20045;-74
2020/12/05 07:58:46;;;;;;;295.33;263.73;;;;;;;;;;5068838;28;20024;-73
2020/12/05 08:01:25;;;;;;;317.77;285.42;;;;;;;;;;5058059;28;20111;-74
2020/12/05 08:04:02;;;;;;;318.98;286.73;;;;;;;;;;5065875;28;20064;-73
2020/12/05 08:06:47;;;;;;;338.10;305.10;;;;;;;;;;5067498;28;20028;-73
2020/12/05 08:09:19;;;;;;;325.75;293.13;;;;;;;;;;5069313;28;20116;-73
2020/12/05 08:11:47;;;;;;;270.70;223.15;;;;;;;;;;5070446;28;20048;-72
2020/12/05 08:14:14;;;;;;;307.83;275.88;;;;;;;;;;5065251;28;20035;-73
2020/12/05 08:16:40;;;;;;;303.20;271.27;;;;;;;;;;5069833;28;20029;-73
2020/12/05 08:19:07;;;;;;;317.83;285.45;;;;;;;;;;5069531;28;20052;-73
2020/12/05 08:21:34;;;;;;;320.75;287.92;;;;;;;;;;5060378;28;20034;-72
2020/12/05 08:24:07;;;;;;;325.77;293.20;;;;;;;;;;5064886;28;20036;-73
2020/12/05 08:26:33;;;;;;;312.33;280.20;;;;;;;;;;5064554;28;20048;-74
2020/12/05 08:29:00;;;;;;;316.90;284.45;;;;;;;;;;5068421;28;20471;-71
2020/12/05 08:31:26;;;;;;;290.35;258.95;;;;;;;;;;5064139;28;20377;-74
2020/12/05 08:33:53;;;;;;;314.15;281.73;;;;;;;;;;5063268;28;20028;-73
2020/12/05 08:36:19;;;;;;;312.95;280.58;;;;;;;;;;5068098;28;20074;-73
2020/12/05 08:38:45;;;;;;;363.33;329.23;;;;;;;;;;5064684;28;20393;-73
2020/12/05 08:41:11;;;;;;;307.48;275.58;;;;;;;;;;5057734;28;20063;-73
2020/12/05 08:43:37;;;;;;;300.80;268.80;;;;;;;;;;5061230;28;20048;-74
2020/12/05 08:46:24;;;;;;;299.88;268.38;;;;;;;;;;5062890;28;20025;-72
2020/12/05 08:48:50;;;;;;;323.23;290.63;;;;;;;;;;5059228;28;20036;-73
2020/12/05 08:51:17;;;;;;;294.73;263.30;;;;;;;;;;5054872;28;20286;-73
2020/12/05 08:53:43;;;;;;;323.10;290.45;;;;;;;;;;5059833;28;20036;-72
2020/12/05 08:56:19;;;;;;;329.10;296.30;;;;;;;;;;5056142;28;20037;-73
2020/12/05 08:58:45;;;;;;;336.77;303.67;;;;;;;;;;5064790;28;20025;-73
2020/12/05 09:01:12;;;;;;;287.93;256.83;;;;;;;;;;5063965;28;20024;-73
2020/12/05 09:03:39;;;;;;;347.25;313.83;;;;;;;;;;5068254;28;20294;-72
2020/12/05 09:06:05;;;;;;;329.00;296.38;;;;;;;;;;5058370;28;20523;-73
2020/12/05 09:08:31;;;;;;;332.50;299.40;;;;;;;;;;5067924;28;20078;-73
2020/12/05 09:10:57;;;;;;;352.83;319.13;;;;;;;;;;5063522;28;20053;-74
2020/12/05 09:13:24;;;;;;;349.15;315.67;;;;;;;;;;5058704;28;20183;-73
2020/12/05 09:16:03;;;;;;;306.73;274.67;;;;;;;;;;5065305;28;20059;-72
2020/12/05 09:18:50;;;;;;;312.63;280.42;;;;;;;;;;5057958;28;20311;-73
2020/12/05 09:21:18;;;;;;;322.13;289.48;;;;;;;;;;5071034;28;20074;-74
2020/12/05 09:23:45;;;;;;;;;;;;;;;;;;5064845;28;20040;-74
2020/12/05 09:26:11;;;;;;;308.52;276.55;;;;;;;;;;5071728;28;19916;-72
2020/12/05 09:28:37;;;;;;;328.85;296.25;;;;;;;;;;5064301;28;20098;-73
2020/12/05 09:31:06;;;;;;;303.15;271.17;;;;;;;;;;5066578;28;20048;-73
2020/12/05 09:33:32;;;;;;;301.48;269.83;;;;;;;;;;5069503;28;20021;-73
2020/12/05 09:35:58;;;;;;;351.27;317.77;;;;;;;;;;5065119;28;20031;-73
2020/12/05 09:38:24;;;;;;;304.73;272.67;;;;;;;;;;5069953;28;20063;-73
2020/12/05 09:40:50;;;;;;;317.80;285.52;;;;;;;;;;5064888;28;20024;-73
2020/12/05 09:43:16;;;;;;;317.38;285.13;;;;;;;;;;5069199;28;20099;-72
2020/12/05 09:45:43;;;;;;;325.90;293.42;;;;;;;;;;5066913;28;20025;-72
2020/12/05 09:48:09;;;;;;;270.75;232.50;;;;;;;;;;5068009;28;20543;-73
2020/12/05 09:50:35;;;;;;;279.02;247.88;;;;;;;;;;5072981;28;20032;-71
2020/12/05 09:53:02;;;;;;;343.80;310.38;;;;;;;;;;5067824;28;20033;-72
2020/12/05 09:55:28;;;;;;;309.48;277.40;;;;;;;;;;5064239;28;20029;-73
2020/12/05 09:57:54;;;;;;;303.70;271.85;;;;;;;;;;5062713;28;20498;-73
2020/12/05 10:00:20;;;;;;;341.10;307.80;;;;;;;;;;5066149;28;20037;-72
2020/12/05 10:02:47;;;;;;;318.63;286.08;;;;;;;;;;5066063;28;20029;-73
2020/12/05 10:05:13;;;;;;;328.73;296.33;;;;;;;;;;5073051;28;20159;-73
2020/12/05 10:07:39;;;;;;;306.35;274.05;;;;;;;;;;5067175;28;20142;-72
2020/12/05 10:10:06;;;;;;;310.73;278.52;;;;;;;;;;5066214;28;20032;-71
2020/12/05 10:12:33;;;;;;;327.58;294.80;;;;;;;;;;5068310;28;20070;-77
2020/12/05 10:14:59;;;;;;;338.58;305.05;;;;;;;;;;5062004;28;20039;-70
2020/12/05 10:17:25;;;;;;;306.85;274.50;;;;;;;;;;5062790;28;20031;-69
2020/12/05 10:19:51;;;;;;;332.95;299.70;;;;;;;;;;5058399;28;20084;-68
2020/12/05 10:22:17;;;;;;;281.52;250.23;;;;;;;;;;5061723;28;20138;-68
2020/12/05 10:24:43;;;;;;;281.10;249.05;;;;;;;;;;5060030;28;20047;-69
2020/12/05 10:27:09;;;;;;;292.52;260.70;;;;;;;;;;5063833;28;20032;-69
2020/12/05 10:29:35;;;;;;;282.10;247.52;;;;;;;;;;5065972;28;20028;-69
2020/12/05 10:32:01;;;;;;;276.38;239.20;;;;;;;;;;5065041;28;20051;-69
2020/12/05 10:34:27;;;;;;;277.13;240.35;;;;;;;;;;5062148;28;20032;-68
2020/12/05 10:36:54;;;;;;;322.08;289.42;;;;;;;;;;5070124;28;20027;-69
2020/12/05 10:39:21;;;;;;;305.33;273.30;;;;;;;;;;5066054;28;20067;-68
2020/12/05 10:41:49;;;;;;;291.35;259.75;;;;;;;;;;5068950;28;20029;-69
2020/12/05 10:44:15;;;;;;;322.17;289.38;;;;;;;;;;5066301;28;20040;-71
2020/12/05 10:46:45;;;;;;;280.00;247.85;;;;;;;;;;5071414;28;20021;-68
2020/12/05 10:49:12;;;;;;;271.35;216.57;;;;;;;;;;5067887;28;20042;-70
2020/12/05 10:51:38;;;;;;;284.80;250.48;;;;;;;;;;5072262;28;20032;-70
2020/12/05 10:54:04;;;;;;;284.23;246.52;;;;;;;;;;5061804;28;20057;-68
2020/12/05 10:56:30;;;;;;;277.50;227.38;;;;;;;;;;5062240;28;20025;-73
2020/12/05 10:58:57;;;;;;;1952.25;999.90;;;;;;;;;;5061739;28;20025;-78
2020/12/05 11:01:22;;;;;;;1945.07;999.90;;;;;;;;;;5068844;28;20052;-78
2020/12/05 11:03:49;;;;;;;1965.82;999.90;;;;;;;;;;5070424;28;20410;-79
2020/12/05 11:06:21;;;;;;;295.20;263.13;;;;;;;;;;5070120;28;20107;-78
2020/12/05 11:08:47;;;;;;;289.58;256.35;;;;;;;;;;5068466;28;20463;-76
2020/12/05 11:11:13;;;;;;;280.38;243.40;;;;;;;;;;5061722;28;20036;-78
2020/12/05 11:13:39;;;;;;;278.30;233.00;;;;;;;;;;5068115;28;20035;-76
2020/12/05 11:16:05;;;;;;;299.45;267.00;;;;;;;;;;5071061;28;20408;-76
2020/12/05 11:18:31;;;;;;;278.02;234.90;;;;;;;;;;5065636;28;20107;-77
2020/12/05 11:20:57;;;;;;;279.48;240.55;;;;;;;;;;5065972;28;20027;-77
2020/12/05 11:23:23;;;;;;;290.73;258.88;;;;;;;;;;5060886;28;20041;-77
2020/12/05 11:25:50;;;;;;;274.83;233.68;;;;;;;;;;5068998;28;20082;-78
2020/12/05 11:28:16;;;;;;;301.80;269.60;;;;;;;;;;5061480;28;20032;-78
2020/12/05 11:30:42;;;;;;;281.80;249.45;;;;;;;;;;5062570;28;20017;-78
2020/12/05 11:33:08;;;;;;;283.05;250.73;;;;;;;;;;5067349;28;20093;-77
2020/12/05 11:35:35;;;;;;;312.17;279.38;;;;;;;;;;5067677;28;20039;-78
2020/12/05 11:38:01;;;;;;;354.73;320.58;;;;;;;;;;5064097;28;20039;-77
2020/12/05 11:40:27;;;;;;;331.00;297.98;;;;;;;;;;5068006;28;20508;-77
2020/12/05 11:42:53;;;;;;;331.17;298.05;;;;;;;;;;5067855;28;20041;-78
2020/12/05 11:45:19;;;;;;;354.70;320.30;;;;;;;;;;5070068;28;20111;-77
2020/12/05 11:47:45;;;;;;;313.98;280.48;;;;;;;;;;5062782;28;20494;-78
2020/12/05 11:50:11;;;;;;;322.13;289.08;;;;;;;;;;5055563;28;20056;-77
2020/12/05 11:52:37;;;;;;;324.35;291.33;;;;;;;;;;5065642;28;20032;-77
2020/12/05 11:55:03;;;;;;;317.77;284.98;;;;;;;;;;5061492;28;20029;-78
2020/12/05 11:57:29;;;;;;;304.98;272.80;;;;;;;;;;5063539;28;20480;-80
2020/12/05 11:59:55;;;;;;;318.63;286.02;;;;;;;;;;5058116;28;20044;-77
2020/12/05 12:02:21;;;;;;;329.65;296.38;;;;;;;;;;5064498;28;20090;-74
2020/12/05 12:04:47;;;;;;;292.58;260.95;;;;;;;;;;5065200;28;20040;-78
2020/12/05 12:07:13;;;;;;;321.90;288.75;;;;;;;;;;5066979;28;20029;-77
2020/12/05 12:09:39;;;;;;;289.02;257.35;;;;;;;;;;5063342;28;20059;-77
2020/12/05 12:12:05;;;;;;;326.00;292.92;;;;;;;;;;5064983;28;20029;-81
2020/12/05 12:14:31;;;;;;;341.63;307.70;;;;;;;;;;5066380;28;20707;-75
2020/12/05 12:16:57;;;;;;;334.30;301.08;;;;;;;;;;5068710;28;20090;-84
2020/12/05 12:19:23;;;;;;;290.48;258.48;;;;;;;;;;5067154;28;20021;-78
2020/12/05 12:21:50;;;;;;;289.88;257.95;;;;;;;;;;5068400;28;20036;-79
2020/12/05 12:24:16;;;;;;;304.88;272.60;;;;;;;;;;5061998;28;20107;-79
2020/12/05 12:26:42;;;;;;;309.85;277.15;;;;;;;;;;5058107;28;20036;-72
2020/12/05 12:29:08;;;;;;;282.42;232.55;;;;;;;;;;5064375;28;20024;-70
2020/12/05 12:31:34;;;;;;;343.83;309.83;;;;;;;;;;5062845;28;20074;-72
2020/12/05 12:34:00;;;;;;;328.58;295.08;;;;;;;;;;5063524;28;20577;-70
2020/12/05 12:36:26;;;;;;;331.67;298.15;;;;;;;;;;5066682;28;20040;-69
2020/12/05 12:38:52;;;;;;;289.38;255.48;;;;;;;;;;5064286;28;20025;-71
2020/12/05 12:41:19;;;;;;;348.42;313.95;;;;;;;;;;5063348;28;20090;-71
2020/12/05 12:43:46;;;;;;;300.92;268.13;;;;;;;;;;5052611;28;20040;-70
2020/12/05 12:46:13;;;;;;;307.05;274.35;;;;;;;;;;5056214;28;20025;-70
2020/12/05 12:48:40;;;;;;;347.73;312.98;;;;;;;;;;5064980;28;20031;-69
2020/12/05 12:51:09;;;;;;;326.43;292.77;;;;;;;;;;5070139;28;20385;-70
2020/12/05 12:53:38;;;;;;;315.65;282.45;;;;;;;;;;5059217;28;20041;-78
2020/12/05 12:56:05;;;;;;;345.90;311.63;;;;;;;;;;5073353;28;20062;-70
2020/12/05 12:58:44;;;;;;;324.35;290.58;;;;;;;;;;5068000;28;20022;-70
2020/12/05 13:01:10;;;;;;;375.20;339.30;;;;;;;;;;5066222;28;20537;-72
2020/12/05 13:03:37;;;;;;;314.58;281.38;;;;;;;;;;5065493;28;20196;-73
2020/12/05 13:06:03;;;;;;;337.40;303.33;;;;;;;;;;5064426;28;20033;-72
2020/12/05 13:08:31;;;;;;;339.50;305.52;;;;;;;;;;5067775;28;20798;-73
2020/12/05 13:10:57;;;;;;;323.23;289.67;;;;;;;;;;5071925;28;20070;-73
2020/12/05 13:13:23;;;;;;;311.73;278.55;;;;;;;;;;5061612;28;20024;-72
2020/12/05 13:15:49;;;;;;;302.75;270.13;;;;;;;;;;5064326;28;20113;-74
2020/12/05 13:18:15;;;;;;;302.38;270.08;;;;;;;;;;5067529;28;20423;-73
2020/12/05 13:20:41;;;;;;;335.45;301.63;;;;;;;;;;5074716;28;20032;-72
2020/12/05 13:23:07;;;;;;;364.08;329.27;;;;;;;;;;5069235;28;20032;-72
2020/12/05 13:25:33;;;;;;;334.25;300.65;;;;;;;;;;5073265;28;20048;-72
2020/12/05 13:27:59;;;;;;;330.15;296.92;;;;;;;;;;5065952;28;20033;-69
2020/12/05 13:30:25;;;;;;;312.05;279.10;;;;;;;;;;5072809;28;20028;-69
2020/12/05 13:32:51;;;;;;;300.35;267.40;;;;;;;;;;5072399;28;22555;-71
2020/12/05 13:35:17;;;;;;;323.95;290.10;;;;;;;;;;5069651;28;20112;-70
2020/12/05 13:37:43;;;;;;;364.13;328.10;;;;;;;;;;5072591;28;20108;-70
2020/12/05 13:40:09;;;;;;;339.42;304.90;;;;;;;;;;5071461;28;20041;-69
2020/12/05 13:42:35;;;;;;;359.95;324.38;;;;;;;;;;5071351;28;20032;-71
2020/12/05 13:45:01;;;;;;;300.60;267.58;;;;;;;;;;5072607;28;20070;-70
2020/12/05 13:47:27;;;;;;;346.58;311.70;;;;;;;;;;5074207;28;20020;-71
2020/12/05 13:49:53;;;;;;;336.73;302.63;;;;;;;;;;5064520;28;20523;-70
2020/12/05 13:52:19;;;;;;;346.40;311.63;;;;;;;;;;5061423;28;20044;-69
2020/12/05 13:54:45;;;;;;;363.13;328.15;;;;;;;;;;5065969;28;20104;-68
2020/12/05 13:57:11;;;;;;;341.92;307.63;;;;;;;;;;5062105;28;20112;-68